createdAt,value
2022-09-28T00:00:02.690Z,982.69
2022-09-28T00:01:02.656Z,982.68
2022-09-28T00:02:02.794Z,982.66
2022-09-28T00:03:02.768Z,982.65
2022-09-28T00:04:02.621Z,982.63
2022-09-28T00:05:02.616Z,982.62
2022-09-28T00:06:02.580Z,982.61
2022-09-28T00:07:02.594Z,982.61
2022-09-28T00:08:02.579Z,982.61
2022-09-28T00:09:02.593Z,982.60
2022-09-28T00:10:02.548Z,982.59
2022-09-28T00:11:02.539Z,982.59
2022-09-28T00:12:02.534Z,982.59
2022-09-28T00:13:02.535Z,982.59
2022-09-28T00:14:02.506Z,982.59
2022-09-28T00:15:02.533Z,982.59
2022-09-28T00:16:02.506Z,982.58
2022-09-28T00:17:02.482Z,982.59
2022-09-28T00:18:02.447Z,982.58
2022-09-28T00:19:02.485Z,982.58
2022-09-28T00:20:02.443Z,982.58
2022-09-28T00:21:02.439Z,982.57
2022-09-28T00:22:02.422Z,982.57
2022-09-28T00:23:02.418Z,982.57
2022-09-28T00:24:02.398Z,982.56
2022-09-28T00:25:02.447Z,982.56
2022-09-28T00:26:02.372Z,982.56
2022-09-28T00:27:02.373Z,982.56
2022-09-28T00:28:02.357Z,982.57
2022-09-28T00:29:02.364Z,982.57
2022-09-28T00:30:02.358Z,982.56
2022-09-28T00:31:02.401Z,982.56
2022-09-28T00:32:02.540Z,982.55
2022-09-28T00:33:02.318Z,982.55
2022-09-28T00:34:02.320Z,982.54
2022-09-28T00:35:02.343Z,982.53
2022-09-28T00:36:02.293Z,982.53
2022-09-28T00:37:02.268Z,982.52
2022-09-28T00:38:02.257Z,982.50
2022-09-28T00:39:02.317Z,982.49
2022-09-28T00:40:02.258Z,982.48
2022-09-28T00:41:02.223Z,982.47
2022-09-28T00:42:02.201Z,982.47
2022-09-28T00:43:02.206Z,982.46
2022-09-28T00:44:02.205Z,982.45
2022-09-28T00:45:02.191Z,982.44
2022-09-28T00:46:02.315Z,982.44
2022-09-28T00:47:02.177Z,982.45
2022-09-28T00:48:02.151Z,982.45
2022-09-28T00:49:02.150Z,982.45
2022-09-28T00:50:02.146Z,982.45
2022-09-28T00:51:02.166Z,982.44
2022-09-28T00:52:02.109Z,982.43
2022-09-28T00:53:02.114Z,982.42
2022-09-28T00:54:02.084Z,982.42
2022-09-28T00:55:02.080Z,982.42
2022-09-28T00:56:02.097Z,982.41
2022-09-28T00:57:02.080Z,982.40
2022-09-28T00:58:02.045Z,982.39
2022-09-28T00:59:02.099Z,982.38
2022-09-28T01:00:02.018Z,982.38
2022-09-28T01:01:02.153Z,982.38
2022-09-28T01:02:02.090Z,982.38
2022-09-28T01:03:01.993Z,982.37
2022-09-28T01:04:01.995Z,982.37
2022-09-28T01:05:01.995Z,982.37
2022-09-28T01:06:01.970Z,982.37
2022-09-28T01:07:02.265Z,982.37
2022-09-28T01:08:01.943Z,982.37
2022-09-28T01:09:02.042Z,982.36
2022-09-28T01:10:01.927Z,982.35
2022-09-28T01:11:01.910Z,982.34
2022-09-28T01:12:01.899Z,982.34
2022-09-28T01:13:01.914Z,982.33
2022-09-28T01:14:01.890Z,982.33
2022-09-28T01:15:01.880Z,982.32
2022-09-28T01:16:01.938Z,982.31
2022-09-28T01:17:01.864Z,982.31
2022-09-28T01:18:01.838Z,982.31
2022-09-28T01:19:02.025Z,982.31
2022-09-28T01:20:01.865Z,982.31
2022-09-28T01:21:01.809Z,982.32
2022-09-28T01:22:01.816Z,982.32
2022-09-28T01:23:01.799Z,982.31
2022-09-28T01:24:01.784Z,982.31
2022-09-28T01:25:01.798Z,982.30
2022-09-28T01:26:01.753Z,982.29
2022-09-28T01:27:01.753Z,982.29
2022-09-28T01:28:01.725Z,982.28
2022-09-28T01:29:01.741Z,982.28
2022-09-28T01:30:01.758Z,982.27
2022-09-28T01:31:01.705Z,982.27
2022-09-28T01:32:01.787Z,982.28
2022-09-28T01:33:01.694Z,982.28
2022-09-28T01:34:01.682Z,982.28
2022-09-28T01:35:01.684Z,982.28
2022-09-28T01:36:01.646Z,982.28
2022-09-28T01:37:01.648Z,982.29
2022-09-28T01:38:01.636Z,982.28
2022-09-28T01:39:01.632Z,982.28
2022-09-28T01:40:01.635Z,982.27
2022-09-28T01:41:01.611Z,982.27
2022-09-28T01:42:01.589Z,982.25
2022-09-28T01:43:01.614Z,982.24
2022-09-28T01:44:01.772Z,982.22
2022-09-28T01:45:01.565Z,982.21
2022-09-28T01:46:01.590Z,982.21
2022-09-28T01:47:01.557Z,982.21
2022-09-28T01:48:01.547Z,982.22
2022-09-28T01:49:01.529Z,982.22
2022-09-28T01:50:01.531Z,982.22
2022-09-28T01:51:01.511Z,982.22
2022-09-28T01:52:01.479Z,982.23
2022-09-28T01:53:01.477Z,982.22
2022-09-28T01:54:01.526Z,982.22
2022-09-28T01:55:01.479Z,982.21
2022-09-28T01:56:01.468Z,982.20
2022-09-28T01:57:01.440Z,982.20
2022-09-28T01:58:01.421Z,982.20
2022-09-28T01:59:01.460Z,982.19
2022-09-28T02:00:01.406Z,982.20
2022-09-28T02:01:01.421Z,982.20
2022-09-28T02:02:01.432Z,982.20
2022-09-28T02:03:01.377Z,982.19
2022-09-28T02:04:01.359Z,982.20
2022-09-28T02:05:01.381Z,982.20
2022-09-28T02:06:01.332Z,982.19
2022-09-28T02:07:01.380Z,982.18
2022-09-28T02:08:01.311Z,982.18
2022-09-28T02:09:01.309Z,982.19
2022-09-28T02:10:01.291Z,982.17
2022-09-28T02:11:01.282Z,982.16
2022-09-28T02:12:01.290Z,982.16
2022-09-28T02:13:01.300Z,982.14
2022-09-28T02:14:01.262Z,982.15
2022-09-28T02:15:01.255Z,982.14
2022-09-28T02:16:01.330Z,982.14
2022-09-28T02:17:01.254Z,982.13
2022-09-28T02:18:01.211Z,982.14
2022-09-28T02:19:01.205Z,982.14
2022-09-28T02:20:01.199Z,982.14
2022-09-28T02:21:01.213Z,982.15
2022-09-28T02:22:01.173Z,982.16
2022-09-28T02:23:01.170Z,982.16
2022-09-28T02:24:01.149Z,982.16
2022-09-28T02:25:01.182Z,982.15
2022-09-28T02:26:01.149Z,982.16
2022-09-28T02:27:01.121Z,982.15
2022-09-28T02:28:01.151Z,982.16
2022-09-28T02:29:01.108Z,982.16
2022-09-28T02:30:01.082Z,982.15
2022-09-28T02:31:01.091Z,982.14
2022-09-28T02:32:01.097Z,982.16
2022-09-28T02:33:01.072Z,982.16
2022-09-28T02:34:01.042Z,982.16
2022-09-28T02:35:01.040Z,982.17
2022-09-28T02:36:01.035Z,982.17
2022-09-28T02:37:01.040Z,982.18
2022-09-28T02:38:01.014Z,982.18
2022-09-28T02:39:01.007Z,982.18
2022-09-28T02:40:00.982Z,982.19
2022-09-28T02:41:01.084Z,982.19
2022-09-28T02:42:00.958Z,982.18
2022-09-28T02:43:00.968Z,982.19
2022-09-28T02:44:00.945Z,982.19
2022-09-28T02:45:00.948Z,982.21
2022-09-28T02:46:01.032Z,982.21
2022-09-28T02:47:00.976Z,982.22
2022-09-28T02:48:00.991Z,982.22
2022-09-28T02:49:20.259Z,982.22
2022-09-28T02:50:00.880Z,982.21
2022-09-28T02:51:00.881Z,982.23
2022-09-28T02:52:00.846Z,982.22
2022-09-28T02:53:00.866Z,982.23
2022-09-28T02:54:00.847Z,982.24
2022-09-28T02:55:00.838Z,982.23
2022-09-28T02:56:00.822Z,982.23
2022-09-28T02:57:00.843Z,982.23
2022-09-28T02:58:00.806Z,982.24
2022-09-28T02:59:00.799Z,982.23
2022-09-28T03:00:00.780Z,982.25
2022-09-28T03:01:00.822Z,982.23
2022-09-28T03:02:00.850Z,982.24
2022-09-28T03:03:00.772Z,982.25
2022-09-28T03:04:00.801Z,982.24
2022-09-28T03:05:00.730Z,982.25
2022-09-28T03:06:00.714Z,982.25
2022-09-28T03:07:00.712Z,982.26
2022-09-28T03:08:00.709Z,982.25
2022-09-28T03:09:00.689Z,982.26
2022-09-28T03:10:00.679Z,982.26
2022-09-28T03:11:00.658Z,982.27
2022-09-28T03:12:00.663Z,982.27
2022-09-28T03:13:00.681Z,982.25
2022-09-28T03:14:00.622Z,982.26
2022-09-28T03:15:00.628Z,982.26
2022-09-28T03:16:00.677Z,982.25
2022-09-28T03:17:00.606Z,982.25
2022-09-28T03:18:00.604Z,982.24
2022-09-28T03:19:00.607Z,982.24
2022-09-28T03:20:00.572Z,982.24
2022-09-28T03:21:00.567Z,982.25
2022-09-28T03:22:00.544Z,982.26
2022-09-28T03:23:23.436Z,982.27
2022-09-28T03:24:00.540Z,982.26
2022-09-28T03:25:00.530Z,982.26
2022-09-28T03:26:00.558Z,982.29
2022-09-28T03:27:00.514Z,982.27
2022-09-28T03:28:00.482Z,982.27
2022-09-28T03:29:00.470Z,982.29
2022-09-28T03:30:00.503Z,982.29
2022-09-28T03:31:00.454Z,982.28
2022-09-28T03:32:00.520Z,982.28
2022-09-28T03:33:00.482Z,982.29
2022-09-28T03:34:00.431Z,982.28
2022-09-28T03:35:00.408Z,982.27
2022-09-28T03:36:00.447Z,982.26
2022-09-28T03:37:00.384Z,982.25
2022-09-28T03:38:00.400Z,982.25
2022-09-28T03:39:00.374Z,982.25
2022-09-28T03:40:00.380Z,982.24
2022-09-28T03:41:00.490Z,982.24
2022-09-28T03:42:00.353Z,982.25
2022-09-28T03:43:00.355Z,982.25
2022-09-28T03:44:00.318Z,982.24
2022-09-28T03:45:00.289Z,982.24
2022-09-28T03:46:00.542Z,982.24
2022-09-28T03:47:00.278Z,982.24
2022-09-28T03:48:00.416Z,982.24
2022-09-28T03:49:00.271Z,982.23
2022-09-28T03:50:00.284Z,982.23
2022-09-28T03:51:00.307Z,982.23
2022-09-28T03:52:00.230Z,982.23
2022-09-28T03:53:00.243Z,982.23
2022-09-28T03:54:00.230Z,982.22
2022-09-28T03:55:00.205Z,982.22
2022-09-28T03:56:00.196Z,982.20
2022-09-28T03:57:00.200Z,982.19
2022-09-28T03:58:00.189Z,982.19
2022-09-28T03:59:00.205Z,982.20
2022-09-28T04:00:00.177Z,982.20
2022-09-28T04:01:00.223Z,982.21
2022-09-28T04:02:00.230Z,982.20
2022-09-28T04:03:00.108Z,982.21
2022-09-28T04:04:00.133Z,982.20
2022-09-28T04:05:00.098Z,982.20
2022-09-28T04:06:00.143Z,982.19
2022-09-28T04:07:00.097Z,982.18
2022-09-28T04:08:00.087Z,982.19
2022-09-28T04:09:00.061Z,982.18
2022-09-28T04:10:00.061Z,982.18
2022-09-28T04:11:00.032Z,982.17
2022-09-28T04:12:04.384Z,982.18
2022-09-28T04:13:00.013Z,982.18
2022-09-28T04:14:00.018Z,982.18
2022-09-28T04:15:01.749Z,982.18
2022-09-28T04:16:00.044Z,982.18
2022-09-28T04:16:59.980Z,982.17
2022-09-28T04:17:59.963Z,982.18
2022-09-28T04:18:59.970Z,982.18
2022-09-28T04:19:59.948Z,982.18
2022-09-28T04:20:59.936Z,982.18
2022-09-28T04:21:59.934Z,982.18
2022-09-28T04:22:59.984Z,982.19
2022-09-28T04:24:00.006Z,982.18
2022-09-28T04:24:59.878Z,982.18
2022-09-28T04:25:59.895Z,982.18
2022-09-28T04:26:59.891Z,982.19
2022-09-28T04:27:59.872Z,982.20
2022-09-28T04:29:05.519Z,982.19
2022-09-28T04:29:59.893Z,982.19
2022-09-28T04:30:59.823Z,982.19
2022-09-28T04:31:59.860Z,982.19
2022-09-28T04:32:59.804Z,982.20
2022-09-28T04:33:59.803Z,982.21
2022-09-28T04:34:59.800Z,982.21
2022-09-28T04:35:59.783Z,982.22
2022-09-28T04:36:59.764Z,982.22
2022-09-28T04:37:59.764Z,982.22
2022-09-28T04:38:59.747Z,982.22
2022-09-28T04:39:59.764Z,982.22
2022-09-28T04:40:59.783Z,982.21
2022-09-28T04:41:59.720Z,982.21
2022-09-28T04:42:59.708Z,982.20
2022-09-28T04:43:59.707Z,982.21
2022-09-28T04:44:59.680Z,982.22
2022-09-28T04:45:59.825Z,982.22
2022-09-28T04:47:02.998Z,982.22
2022-09-28T04:47:59.670Z,982.23
2022-09-28T04:48:59.699Z,982.23
2022-09-28T04:49:59.664Z,982.24
2022-09-28T04:50:59.665Z,982.25
2022-09-28T04:51:59.625Z,982.26
2022-09-28T04:52:59.605Z,982.27
2022-09-28T04:53:59.611Z,982.27
2022-09-28T04:54:59.671Z,982.28
2022-09-28T04:55:59.587Z,982.28
2022-09-28T04:56:59.591Z,982.28
2022-09-28T04:57:59.578Z,982.29
2022-09-28T04:58:59.540Z,982.30
2022-09-28T04:59:59.533Z,982.31
2022-09-28T05:00:59.579Z,982.31
2022-09-28T05:01:59.542Z,982.32
2022-09-28T05:02:59.462Z,982.33
2022-09-28T05:03:59.497Z,982.35
2022-09-28T05:04:59.484Z,982.35
2022-09-28T05:05:59.475Z,982.35
2022-09-28T05:06:59.503Z,982.35
2022-09-28T05:07:59.461Z,982.34
2022-09-28T05:08:59.385Z,982.34
2022-09-28T05:09:59.430Z,982.34
2022-09-28T05:10:59.409Z,982.33
2022-09-28T05:11:59.387Z,982.33
2022-09-28T05:12:59.359Z,982.33
2022-09-28T05:13:59.334Z,982.35
2022-09-28T05:14:59.333Z,982.35
2022-09-28T05:16:04.356Z,982.33
2022-09-28T05:16:59.344Z,982.32
2022-09-28T05:17:59.298Z,982.32
2022-09-28T05:18:59.302Z,982.31
2022-09-28T05:19:59.289Z,982.32
2022-09-28T05:20:59.260Z,982.32
2022-09-28T05:21:59.239Z,982.32
2022-09-28T05:22:59.223Z,982.33
2022-09-28T05:23:59.231Z,982.33
2022-09-28T05:24:59.210Z,982.33
2022-09-28T05:25:59.225Z,982.33
2022-09-28T05:26:59.185Z,982.32
2022-09-28T05:27:59.192Z,982.31
2022-09-28T05:28:59.237Z,982.30
2022-09-28T05:29:59.288Z,982.29
2022-09-28T05:30:59.183Z,982.30
2022-09-28T05:31:59.219Z,982.28
2022-09-28T05:32:59.109Z,982.29
2022-09-28T05:33:59.120Z,982.29
2022-09-28T05:34:59.144Z,982.29
2022-09-28T05:36:01.277Z,982.28
2022-09-28T05:36:59.079Z,982.29
2022-09-28T05:37:59.080Z,982.29
2022-09-28T05:38:59.061Z,982.28
2022-09-28T05:39:59.078Z,982.27
2022-09-28T05:41:02.083Z,982.27
2022-09-28T05:41:59.043Z,982.27
2022-09-28T05:42:59.027Z,982.27
2022-09-28T05:43:59.016Z,982.27
2022-09-28T05:44:58.998Z,982.26
2022-09-28T05:45:59.038Z,982.27
2022-09-28T05:46:58.989Z,982.26
2022-09-28T05:47:59.007Z,982.25
2022-09-28T05:48:59.004Z,982.26
2022-09-28T05:49:58.960Z,982.26
2022-09-28T05:50:58.980Z,982.26
2022-09-28T05:51:58.935Z,982.26
2022-09-28T05:52:58.907Z,982.26
2022-09-28T05:54:04.602Z,982.27
2022-09-28T05:54:58.958Z,982.28
2022-09-28T05:55:58.898Z,982.28
2022-09-28T05:56:58.892Z,982.29
2022-09-28T05:57:58.872Z,982.30
2022-09-28T05:58:58.853Z,982.30
2022-09-28T05:59:58.852Z,982.32
2022-09-28T06:00:58.919Z,982.32
2022-09-28T06:01:58.942Z,982.32
2022-09-28T06:02:58.811Z,982.32
2022-09-28T06:03:58.803Z,982.32
2022-09-28T06:04:58.788Z,982.33
2022-09-28T06:05:58.787Z,982.34
2022-09-28T06:06:58.797Z,982.35
2022-09-28T06:07:58.771Z,982.34
2022-09-28T06:08:58.737Z,982.34
2022-09-28T06:09:58.747Z,982.35
2022-09-28T06:10:58.731Z,982.35
2022-09-28T06:11:58.796Z,982.37
2022-09-28T06:12:58.740Z,982.36
2022-09-28T06:13:58.711Z,982.38
2022-09-28T06:14:58.691Z,982.36
2022-09-28T06:15:58.673Z,982.37
2022-09-28T06:16:58.755Z,982.39
2022-09-28T06:17:58.696Z,982.39
2022-09-28T06:18:58.658Z,982.41
2022-09-28T06:19:58.646Z,982.42
2022-09-28T06:20:58.622Z,982.42
2022-09-28T06:21:59.458Z,982.43
2022-09-28T06:22:58.621Z,982.44
2022-09-28T06:23:58.617Z,982.46
2022-09-28T06:24:58.577Z,982.47
2022-09-28T06:25:58.594Z,982.48
2022-09-28T06:26:58.561Z,982.49
2022-09-28T06:27:58.557Z,982.49
2022-09-28T06:28:58.589Z,982.50
2022-09-28T06:29:58.587Z,982.53
2022-09-28T06:30:58.575Z,982.53
2022-09-28T06:31:58.516Z,982.55
2022-09-28T06:32:58.548Z,982.57
2022-09-28T06:33:58.588Z,982.59
2022-09-28T06:34:58.488Z,982.60
2022-09-28T06:35:58.489Z,982.60
2022-09-28T06:36:58.548Z,982.61
2022-09-28T06:37:58.492Z,982.62
2022-09-28T06:38:58.482Z,982.64
2022-09-28T06:39:58.444Z,982.65
2022-09-28T06:40:58.457Z,982.67
2022-09-28T06:41:58.418Z,982.69
2022-09-28T06:42:58.393Z,982.70
2022-09-28T06:43:58.411Z,982.72
2022-09-28T06:44:58.400Z,982.72
2022-09-28T06:45:58.469Z,982.73
2022-09-28T06:46:58.350Z,982.73
2022-09-28T06:47:58.391Z,982.73
2022-09-28T06:48:58.332Z,982.75
2022-09-28T06:49:58.374Z,982.77
2022-09-28T06:50:58.340Z,982.78
2022-09-28T06:51:58.318Z,982.78
2022-09-28T06:52:58.295Z,982.77
2022-09-28T06:53:58.293Z,982.77
2022-09-28T06:54:58.286Z,982.78
2022-09-28T06:55:58.462Z,982.78
2022-09-28T06:56:58.243Z,982.78
2022-09-28T06:57:58.254Z,982.80
2022-09-28T06:58:58.260Z,982.80
2022-09-28T06:59:58.234Z,982.80
2022-09-28T07:00:58.272Z,982.81
2022-09-28T07:01:58.313Z,982.80
2022-09-28T07:02:58.228Z,982.81
2022-09-28T07:03:58.201Z,982.82
2022-09-28T07:04:58.166Z,982.82
2022-09-28T07:05:58.162Z,982.82
2022-09-28T07:06:58.159Z,982.83
2022-09-28T07:07:58.160Z,982.85
2022-09-28T07:09:16.636Z,982.86
2022-09-28T07:09:58.150Z,982.87
2022-09-28T07:10:58.115Z,982.88
2022-09-28T07:11:58.140Z,982.89
2022-09-28T07:12:58.092Z,982.90
2022-09-28T07:13:58.079Z,982.91
2022-09-28T07:14:58.097Z,982.91
2022-09-28T07:15:58.058Z,982.93
2022-09-28T07:17:12.173Z,982.96
2022-09-28T07:18:02.597Z,982.97
2022-09-28T07:18:58.057Z,982.97
2022-09-28T07:20:00.517Z,982.98
2022-09-28T07:20:58.013Z,982.98
2022-09-28T07:22:04.895Z,982.99
2022-09-28T07:23:06.300Z,983.00
2022-09-28T07:23:58.016Z,983.02
2022-09-28T07:24:57.964Z,983.03
2022-09-28T07:25:57.985Z,983.04
2022-09-28T07:26:57.945Z,983.07
2022-09-28T07:27:57.973Z,983.09
2022-09-28T07:28:57.969Z,983.11
2022-09-28T07:29:57.919Z,983.13
2022-09-28T07:30:58.002Z,983.15
2022-09-28T07:31:57.909Z,983.16
2022-09-28T07:32:57.893Z,983.17
2022-09-28T07:33:57.890Z,983.19
2022-09-28T07:34:58.980Z,983.20
2022-09-28T07:35:57.865Z,983.21
2022-09-28T07:36:57.845Z,983.23
2022-09-28T07:37:57.849Z,983.23
2022-09-28T07:38:57.834Z,983.23
2022-09-28T07:39:57.844Z,983.24
2022-09-28T07:40:57.902Z,983.25
2022-09-28T07:42:02.599Z,983.26
2022-09-28T07:42:57.799Z,983.26
2022-09-28T07:43:57.793Z,983.28
2022-09-28T07:44:57.789Z,983.29
2022-09-28T07:45:57.765Z,983.30
2022-09-28T07:46:57.741Z,983.31
2022-09-28T07:47:57.715Z,983.31
2022-09-28T07:48:57.718Z,983.32
2022-09-28T07:49:57.712Z,983.33
2022-09-28T07:50:57.704Z,983.34
2022-09-28T07:51:57.694Z,983.35
2022-09-28T07:52:57.696Z,983.36
2022-09-28T07:53:57.678Z,983.37
2022-09-28T07:54:57.653Z,983.37
2022-09-28T07:55:57.687Z,983.38
2022-09-28T07:56:57.631Z,983.40
2022-09-28T07:57:57.772Z,983.39
2022-09-28T07:58:57.614Z,983.40
2022-09-28T07:59:57.600Z,983.40
2022-09-28T08:00:57.655Z,983.40
2022-09-28T08:01:57.673Z,983.41
2022-09-28T08:02:57.592Z,983.42
2022-09-28T08:03:57.566Z,983.44
2022-09-28T08:04:57.567Z,983.44
2022-09-28T08:05:57.538Z,983.46
2022-09-28T08:06:57.658Z,983.47
2022-09-28T08:07:57.563Z,983.47
2022-09-28T08:08:57.511Z,983.49
2022-09-28T08:09:57.488Z,983.51
2022-09-28T08:10:57.497Z,983.54
2022-09-28T08:11:57.511Z,983.56
2022-09-28T08:13:00.554Z,983.58
2022-09-28T08:13:57.459Z,983.59
2022-09-28T08:14:57.446Z,983.61
2022-09-28T08:15:57.434Z,983.60
2022-09-28T08:16:57.446Z,983.60
2022-09-28T08:18:00.518Z,983.61
2022-09-28T08:18:57.412Z,983.61
2022-09-28T08:19:57.383Z,983.61
2022-09-28T08:20:57.385Z,983.62
2022-09-28T08:21:57.408Z,983.61
2022-09-28T08:22:57.370Z,983.62
2022-09-28T08:23:57.348Z,983.63
2022-09-28T08:24:57.351Z,983.63
2022-09-28T08:25:57.314Z,983.66
2022-09-28T08:26:57.321Z,983.67
2022-09-28T08:27:57.321Z,983.67
2022-09-28T08:28:57.325Z,983.69
2022-09-28T08:29:57.281Z,983.70
2022-09-28T08:30:57.321Z,983.72
2022-09-28T08:32:00.807Z,983.73
2022-09-28T08:32:57.286Z,983.75
2022-09-28T08:33:57.225Z,983.74
2022-09-28T08:34:57.242Z,983.77
2022-09-28T08:35:57.221Z,983.79
2022-09-28T08:36:57.219Z,983.80
2022-09-28T08:37:57.212Z,983.79
2022-09-28T08:38:57.213Z,983.79
2022-09-28T08:39:57.253Z,983.79
2022-09-28T08:40:57.257Z,983.79
2022-09-28T08:41:57.171Z,983.79
2022-09-28T08:42:57.210Z,983.79
2022-09-28T08:43:57.134Z,983.80
2022-09-28T08:44:57.150Z,983.81
2022-09-28T08:45:57.132Z,983.82
2022-09-28T08:46:57.126Z,983.84
2022-09-28T08:47:57.095Z,983.83
2022-09-28T08:49:20.552Z,983.84
2022-09-28T08:49:57.086Z,983.84
2022-09-28T08:50:57.067Z,983.85
2022-09-28T08:51:57.065Z,983.84
2022-09-28T08:52:57.108Z,983.86
2022-09-28T08:53:57.066Z,983.87
2022-09-28T08:54:57.041Z,983.88
2022-09-28T08:55:57.034Z,983.87
2022-09-28T08:56:57.057Z,983.87
2022-09-28T08:57:56.992Z,983.88
2022-09-28T08:58:56.978Z,983.90
2022-09-28T08:59:56.987Z,983.93
2022-09-28T09:00:57.037Z,983.94
2022-09-28T09:01:58.025Z,983.93
2022-09-28T09:02:57.113Z,983.97
2022-09-28T09:03:56.929Z,983.97
2022-09-28T09:04:56.965Z,983.97
2022-09-28T09:05:56.917Z,983.98
2022-09-28T09:06:56.900Z,984.00
2022-09-28T09:07:56.881Z,984.02
2022-09-28T09:08:56.896Z,984.04
2022-09-28T09:09:56.860Z,984.05
2022-09-28T09:10:56.876Z,984.05
2022-09-28T09:11:56.847Z,984.06
2022-09-28T09:12:56.838Z,984.07
2022-09-28T09:13:56.829Z,984.08
2022-09-28T09:14:56.820Z,984.09
2022-09-28T09:15:56.837Z,984.12
2022-09-28T09:17:00.256Z,984.12
2022-09-28T09:17:56.831Z,984.11
2022-09-28T09:18:56.787Z,984.11
2022-09-28T09:19:56.758Z,984.13
2022-09-28T09:20:56.758Z,984.16
2022-09-28T09:21:56.750Z,984.16
2022-09-28T09:22:56.790Z,984.16
2022-09-28T09:23:56.773Z,984.17
2022-09-28T09:24:56.732Z,984.18
2022-09-28T09:25:56.735Z,984.19
2022-09-28T09:26:56.734Z,984.20
2022-09-28T09:27:56.695Z,984.20
2022-09-28T09:28:56.693Z,984.21
2022-09-28T09:29:56.654Z,984.21
2022-09-28T09:30:56.764Z,984.21
2022-09-28T09:31:56.982Z,984.21
2022-09-28T09:32:56.625Z,984.22
2022-09-28T09:33:56.615Z,984.20
2022-09-28T09:34:56.617Z,984.19
2022-09-28T09:35:56.592Z,984.19
2022-09-28T09:36:56.596Z,984.19
2022-09-28T09:37:58.648Z,984.20
2022-09-28T09:38:56.599Z,984.20
2022-09-28T09:39:56.608Z,984.20
2022-09-28T09:40:56.758Z,984.21
2022-09-28T09:41:56.595Z,984.22
2022-09-28T09:42:56.545Z,984.22
2022-09-28T09:43:56.602Z,984.22
2022-09-28T09:44:56.516Z,984.22
2022-09-28T09:46:57.141Z,984.23
2022-09-28T09:47:58.149Z,984.24
2022-09-28T09:48:58.160Z,984.24
2022-09-28T09:49:58.124Z,984.24
2022-09-28T09:50:58.119Z,984.24
2022-09-28T09:51:58.125Z,984.27
2022-09-28T09:52:58.091Z,984.24
2022-09-28T09:53:58.097Z,984.25
2022-09-28T09:54:58.057Z,984.27
2022-09-28T09:56:04.602Z,984.28
2022-09-28T09:56:58.038Z,984.27
2022-09-28T09:57:58.076Z,984.29
2022-09-28T09:58:58.020Z,984.30
2022-09-28T09:59:58.022Z,984.33
2022-09-28T10:00:58.058Z,984.33
2022-09-28T10:01:58.058Z,984.33
2022-09-28T10:02:58.006Z,984.34
2022-09-28T10:03:58.176Z,984.35
2022-09-28T10:04:57.971Z,984.35
2022-09-28T10:05:57.950Z,984.35
2022-09-28T10:06:57.931Z,984.36
2022-09-28T10:07:57.921Z,984.36
2022-09-28T10:08:57.930Z,984.36
2022-09-28T10:09:57.923Z,984.36
2022-09-28T10:10:57.874Z,984.36
2022-09-28T10:11:57.913Z,984.37
2022-09-28T10:12:57.863Z,984.38
2022-09-28T10:13:57.868Z,984.39
2022-09-28T10:14:57.897Z,984.39
2022-09-28T10:15:57.904Z,984.39
2022-09-28T10:16:57.934Z,984.37
2022-09-28T10:17:57.805Z,984.37
2022-09-28T10:18:57.807Z,984.37
2022-09-28T10:19:57.788Z,984.38
2022-09-28T10:20:57.815Z,984.38
2022-09-28T10:21:57.758Z,984.40
2022-09-28T10:22:57.759Z,984.42
2022-09-28T10:23:57.743Z,984.42
2022-09-28T10:24:57.733Z,984.43
2022-09-28T10:25:57.722Z,984.43
2022-09-28T10:26:57.744Z,984.45
2022-09-28T10:27:57.708Z,984.46
2022-09-28T10:28:57.740Z,984.48
2022-09-28T10:29:57.673Z,984.46
2022-09-28T10:30:57.749Z,984.49
2022-09-28T10:31:57.666Z,984.46
2022-09-28T10:32:57.656Z,984.46
2022-09-28T10:33:57.630Z,984.45
2022-09-28T10:34:57.630Z,984.43
2022-09-28T10:35:57.616Z,984.44
2022-09-28T10:36:57.643Z,984.43
2022-09-28T10:37:57.605Z,984.45
2022-09-28T10:38:58.721Z,984.43
2022-09-28T10:39:57.590Z,984.46
2022-09-28T10:40:58.648Z,984.43
2022-09-28T10:41:57.546Z,984.44
2022-09-28T10:42:57.556Z,984.46
2022-09-28T10:43:58.205Z,984.49
2022-09-28T10:44:57.584Z,984.49
2022-09-28T10:45:57.576Z,984.51
2022-09-28T10:46:57.509Z,984.51
2022-09-28T10:47:57.486Z,984.50
2022-09-28T10:48:57.474Z,984.52
2022-09-28T10:49:57.453Z,984.53
2022-09-28T10:50:57.450Z,984.52
2022-09-28T10:51:57.450Z,984.49
2022-09-28T10:52:57.452Z,984.47
2022-09-28T10:53:57.410Z,984.47
2022-09-28T10:54:57.413Z,984.50
2022-09-28T10:55:57.389Z,984.49
2022-09-28T10:56:57.390Z,984.53
2022-09-28T10:57:57.388Z,984.51
2022-09-28T10:58:57.362Z,984.52
2022-09-28T10:59:57.356Z,984.53
2022-09-28T11:00:57.393Z,984.54
2022-09-28T11:01:57.319Z,984.56
2022-09-28T11:02:57.390Z,984.59
2022-09-28T11:03:57.316Z,984.60
2022-09-28T11:04:57.301Z,984.64
2022-09-28T11:05:57.279Z,984.65
2022-09-28T11:06:57.303Z,984.65
2022-09-28T11:07:57.271Z,984.66
2022-09-28T11:08:57.284Z,984.67
2022-09-28T11:09:57.232Z,984.67
2022-09-28T11:10:57.235Z,984.66
2022-09-28T11:11:57.294Z,984.66
2022-09-28T11:12:57.217Z,984.69
2022-09-28T11:13:57.237Z,984.69
2022-09-28T11:14:57.254Z,984.70
2022-09-28T11:15:57.295Z,984.71
2022-09-28T11:16:57.359Z,984.72
2022-09-28T11:17:57.204Z,984.71
2022-09-28T11:18:57.161Z,984.73
2022-09-28T11:19:57.157Z,984.72
2022-09-28T11:20:57.162Z,984.73
2022-09-28T11:21:57.100Z,984.75
2022-09-28T11:22:57.102Z,984.75
2022-09-28T11:23:57.117Z,984.74
2022-09-28T11:24:57.100Z,984.75
2022-09-28T11:25:57.068Z,984.76
2022-09-28T11:26:57.086Z,984.75
2022-09-28T11:27:57.081Z,984.79
2022-09-28T11:28:57.043Z,984.76
2022-09-28T11:29:57.016Z,984.76
2022-09-28T11:30:57.047Z,984.75
2022-09-28T11:31:57.048Z,984.76
2022-09-28T11:32:57.004Z,984.74
2022-09-28T11:33:56.982Z,984.73
2022-09-28T11:34:59.617Z,984.75
2022-09-28T11:36:11.522Z,984.74
2022-09-28T11:37:01.431Z,984.74
2022-09-28T11:37:56.929Z,984.74
2022-09-28T11:38:56.993Z,984.75
2022-09-28T11:39:56.937Z,984.75
2022-09-28T11:40:56.950Z,984.74
2022-09-28T11:41:56.900Z,984.77
2022-09-28T11:42:56.977Z,984.76
2022-09-28T11:43:56.870Z,984.78
2022-09-28T11:44:56.877Z,984.79
2022-09-28T11:45:56.918Z,984.78
2022-09-28T11:46:56.882Z,984.77
2022-09-28T11:47:56.867Z,984.78
2022-09-28T11:48:56.880Z,984.79
2022-09-28T11:49:56.821Z,984.79
2022-09-28T11:50:56.831Z,984.78
2022-09-28T11:52:03.529Z,984.80
2022-09-28T11:52:57.569Z,984.79
2022-09-28T11:53:56.825Z,984.77
2022-09-28T11:54:56.790Z,984.79
2022-09-28T11:55:56.740Z,984.78
2022-09-28T11:56:56.794Z,984.76
2022-09-28T11:57:56.743Z,984.78
2022-09-28T11:58:56.718Z,984.79
2022-09-28T11:59:56.718Z,984.78
2022-09-28T12:00:56.704Z,984.79
2022-09-28T12:01:56.875Z,984.79
2022-09-28T12:02:56.827Z,984.78
2022-09-28T12:03:56.657Z,984.78
2022-09-28T12:04:56.657Z,984.76
2022-09-28T12:05:56.636Z,984.76
2022-09-28T12:06:56.626Z,984.79
2022-09-28T12:07:56.647Z,984.78
2022-09-28T12:08:56.609Z,984.80
2022-09-28T12:09:56.592Z,984.80
2022-09-28T12:10:56.590Z,984.80
2022-09-28T12:11:56.569Z,984.80
2022-09-28T12:12:56.576Z,984.82
2022-09-28T12:13:56.562Z,984.83
2022-09-28T12:14:56.537Z,984.83
2022-09-28T12:17:12.430Z,984.83
2022-09-28T12:17:56.589Z,984.81
2022-09-28T12:18:56.518Z,984.82
2022-09-28T12:19:56.483Z,984.82
2022-09-28T12:20:56.476Z,984.82
2022-09-28T12:21:56.469Z,984.81
2022-09-28T12:22:56.455Z,984.80
2022-09-28T12:23:56.465Z,984.78
2022-09-28T12:24:56.435Z,984.78
2022-09-28T12:25:56.414Z,984.76
2022-09-28T12:26:56.439Z,984.76
2022-09-28T12:27:56.405Z,984.75
2022-09-28T12:28:56.405Z,984.73
2022-09-28T12:29:56.369Z,984.72